Time;durP1;ratioP1;P1;durP2;ratioP2;P2;SDS_P1;SDS_P2;PMS_P1;PMS_P2;Temp;Humidity;BMP_temperature;BMP_pressure;BME280_temperature;BME280_humidity;BME280_pressure;Samples;Min_cycle;Max_cycle;Signal;HPM_P1;HPM_P2
2022/02/09 00:01:20;;;;;;;2.47;1.27;;;23.20;57.90;;;;;;5071272;28;20195;-51
2022/02/09 00:03:59;;;;;;;2.47;1.25;;;23.20;57.90;;;;;;5071258;28;20221;-56
2022/02/09 00:06:43;;;;;;;4.05;1.20;;;23.20;57.90;;;;;;5068103;28;20660;-58
2022/02/09 00:09:14;;;;;;;1.50;1.20;;;23.20;57.90;;;;;;5071419;28;20618;-46
2022/02/09 00:11:50;;;;;;;2.22;1.15;;;23.20;58.00;;;;;;5070776;28;20678;-60
2022/02/09 00:14:27;;;;;;;1.85;1.20;;;23.20;58.00;;;;;;5070617;28;20325;-46
2022/02/09 00:17:18;;;;;;;1.40;1.30;;;23.30;58.10;;;;;;5070654;28;20199;-50
2022/02/09 00:20:10;;;;;;;1.40;1.00;;;23.30;58.10;;;;;;5070656;28;20280;-60
2022/02/09 00:23:08;;;;;;;2.50;1.05;;;23.30;58.00;;;;;;5069750;28;20676;-58
2022/02/09 00:31:51;;;;;;;2.22;1.05;;;23.40;57.90;;;;;;5069062;28;20658;-54
2022/02/09 00:34:35;;;;;;;2.45;1.20;;;23.40;57.80;;;;;;5070249;28;20248;-54
2022/02/09 00:37:26;;;;;;;1.33;0.90;;;23.40;57.80;;;;;;5067601;28;20203;-49
2022/02/09 00:59:57;;;;;;;1.60;0.93;;;23.50;58.20;;;;;;5070682;28;20197;-46
2022/02/09 01:38:57;;;;;;;0.85;0.70;;;23.70;58.10;;;;;;5012247;28;20201;-43
2022/02/09 01:55:49;;;;;;;1.05;0.70;;;23.80;58.10;;;;;;5068591;28;20263;-57
2022/02/09 01:58:20;;;;;;;1.20;0.95;;;23.80;58.10;;;;;;5068799;28;20191;-43
2022/02/09 02:00:52;;;;;;;1.20;1.10;;;23.80;58.10;;;;;;5069097;28;20191;-54
2022/02/09 02:03:22;;;;;;;0.98;0.70;;;23.80;58.20;;;;;;5089341;28;20226;-44
2022/02/09 02:05:55;;;;;;;0.80;0.70;;;23.80;58.10;;;;;;5073048;28;20209;-57
2022/02/09 02:08:29;;;;;;;1.92;0.80;;;23.80;58.10;;;;;;5068925;28;20195;-56
2022/02/09 02:11:06;;;;;;;1.67;0.82;;;23.80;58.10;;;;;;5068356;28;20285;-57
2022/02/09 02:14:08;;;;;;;0.73;0.65;;;23.80;58.00;;;;;;5069130;28;20818;-60
2022/02/09 02:16:41;;;;;;;1.20;0.80;;;23.80;58.00;;;;;;5068255;28;20213;-55
2022/02/09 02:19:26;;;;;;;0.63;0.63;;;23.80;58.10;;;;;;5068386;28;20199;-58
2022/02/09 02:22:07;;;;;;;1.13;0.90;;;23.80;58.10;;;;;;5068787;28;20195;-53
2022/02/09 02:25:01;;;;;;;0.80;0.80;;;23.90;58.20;;;;;;5068973;28;20621;-46
2022/02/09 02:27:56;;;;;;;0.75;0.57;;;23.80;58.10;;;;;;5066853;28;20202;-42
2022/02/09 02:33:31;;;;;;;1.00;0.90;;;23.80;58.20;;;;;;5041375;28;20676;-48
2022/02/09 02:36:24;;;;;;;1.20;0.80;;;23.80;58.20;;;;;;5065502;28;20638;-60
2022/02/09 02:59:18;;;;;;;1.15;1.00;;;23.90;58.00;;;;;;5105333;28;20208;-43
2022/02/09 03:10:34;;;;;;;1.33;0.70;;;23.90;57.90;;;;;;5086686;28;20567;-43
2022/02/09 03:13:08;;;;;;;1.00;0.90;;;23.80;57.90;;;;;;5084946;28;20253;-42
2022/02/09 03:15:46;;;;;;;1.23;0.80;;;23.80;57.90;;;;;;5084928;28;20281;-59
2022/02/09 03:18:40;;;;;;;0.70;0.70;;;23.90;57.90;;;;;;5085052;28;20194;-56
2022/02/09 03:21:22;;;;;;;1.15;0.70;;;23.80;58.00;;;;;;5084945;28;20202;-53
2022/02/09 03:23:56;;;;;;;1.02;0.80;;;23.80;57.90;;;;;;5085205;28;20237;-59
2022/02/09 03:46:27;;;;;;;0.63;0.63;;;23.80;58.20;;;;;;5075948;28;20202;-50
2022/02/09 03:49:12;;;;;;;1.27;0.73;;;23.80;58.20;;;;;;5086490;28;20275;-44
2022/02/09 03:52:01;;;;;;;0.90;0.80;;;23.80;58.10;;;;;;5085887;28;20473;-55
2022/02/09 03:54:37;;;;;;;0.80;0.80;;;23.80;58.30;;;;;;5086912;28;20583;-59
2022/02/09 03:57:23;;;;;;;0.73;0.73;;;23.80;58.30;;;;;;5087175;28;20198;-53
2022/02/09 03:59:56;;;;;;;0.93;0.77;;;23.80;58.40;;;;;;5086467;28;20202;-46
2022/02/09 04:02:30;;;;;;;0.85;0.68;;;23.80;58.40;;;;;;5086686;28;20190;-47
2022/02/09 04:05:00;;;;;;;0.95;0.70;;;23.80;58.50;;;;;;5086812;28;20676;-49
2022/02/09 04:07:31;;;;;;;0.90;0.90;;;23.80;58.50;;;;;;5086120;28;20218;-60
2022/02/09 04:10:02;;;;;;;1.00;0.80;;;23.80;58.50;;;;;;5086500;28;20194;-62
2022/02/09 04:12:38;;;;;;;1.13;0.70;;;23.70;58.40;;;;;;5086849;28;20198;-52
2022/02/09 04:15:21;;;;;;;1.10;0.80;;;23.70;58.30;;;;;;5086971;28;20284;-55
2022/02/09 04:18:08;;;;;;;0.65;0.63;;;23.70;58.40;;;;;;5082355;28;20669;-55
2022/02/09 04:37:23;;;;;;;0.88;0.88;;;23.70;58.30;;;;;;5083680;28;20201;-51
2022/02/09 04:39:58;;;;;;;0.60;0.60;;;23.70;58.30;;;;;;5075992;28;20193;-54
2022/02/09 04:42:51;;;;;;;0.80;0.70;;;23.70;58.40;;;;;;5071456;28;20232;-50
2022/02/09 04:48:26;;;;;;;0.80;0.80;;;23.70;58.30;;;;;;5068360;28;20242;-62
2022/02/09 04:51:02;;;;;;;0.90;0.80;;;23.60;58.30;;;;;;5071058;28;20222;-57
2022/02/09 04:56:29;;;;;;;0.98;0.93;;;23.60;58.40;;;;;;5070648;28;20681;-58
2022/02/09 04:59:11;;;;;;;0.80;0.80;;;23.70;58.40;;;;;;5070571;28;20191;-47
2022/02/09 05:04:46;;;;;;;0.98;0.70;;;23.60;58.40;;;;;;5070065;28;20222;-47
2022/02/09 05:19:09;;;;;;;6.10;3.40;;;23.40;62.80;;;;;;5069281;28;20209;-51
2022/02/09 05:21:55;;;;;;;8.57;3.33;;;23.40;62.60;;;;;;5070203;28;20191;-42
2022/02/09 05:24:40;;;;;;;6.00;3.42;;;23.40;62.30;;;;;;5069985;28;20235;-45
2022/02/09 05:27:20;;;;;;;5.82;2.67;;;23.30;62.00;;;;;;5070286;28;20218;-48
2022/02/09 05:29:50;;;;;;;5.22;2.72;;;23.30;62.40;;;;;;5070411;28;20195;-49
2022/02/09 05:32:21;;;;;;;5.00;2.72;;;23.30;62.50;;;;;;5069247;28;20191;-43
2022/02/09 05:34:51;;;;;;;4.60;2.17;;;23.30;62.60;;;;;;5070355;28;20202;-42
2022/02/09 05:37:22;;;;;;;3.20;2.47;;;23.30;62.50;;;;;;5069804;28;20645;-42
2022/02/09 05:39:54;;;;;;;3.33;2.17;;;23.30;62.50;;;;;;5069949;28;20256;-42
2022/02/09 05:42:25;;;;;;;3.88;2.38;;;23.30;62.40;;;;;;5070354;28;20638;-44
2022/02/09 05:44:56;;;;;;;4.85;2.50;;;23.30;62.20;;;;;;5070501;28;20198;-43
2022/02/09 05:50:26;;;;;;;5.53;2.80;;;23.30;62.00;;;;;;5069712;28;20659;-46
2022/02/09 05:53:07;;;;;;;5.03;2.42;;;23.30;61.70;;;;;;5069253;28;20228;-57
2022/02/09 05:55:48;;;;;;;4.63;2.35;;;23.30;61.60;;;;;;5069499;28;20195;-59
2022/02/09 05:58:44;;;;;;;2.65;1.70;;;23.30;61.60;;;;;;5069484;28;20206;-58
2022/02/09 06:01:15;;;;;;;5.18;2.10;;;23.30;61.50;;;;;;5069423;28;20629;-42
2022/02/09 06:03:45;;;;;;;4.10;2.58;;;23.30;61.40;;;;;;5071407;28;20297;-42
2022/02/09 06:06:16;;;;;;;4.45;2.20;;;23.30;61.40;;;;;;5070459;28;20199;-42
2022/02/09 06:08:46;;;;;;;3.50;2.03;;;23.30;61.50;;;;;;5049309;28;20289;-43
2022/02/09 06:11:27;;;;;;;4.65;2.65;;;23.30;61.40;;;;;;5049289;28;20195;-42
2022/02/09 06:14:16;;;;;;;3.95;2.00;;;23.30;61.40;;;;;;5048944;28;20303;-44
2022/02/09 06:19:46;;;;;;;3.78;1.98;;;23.30;61.00;;;;;;5064941;28;20243;-44
2022/02/09 06:22:16;;;;;;;4.40;2.08;;;23.30;61.00;;;;;;5070385;28;20582;-42
2022/02/09 06:24:47;;;;;;;3.03;1.90;;;23.30;61.00;;;;;;5070339;28;20194;-44
2022/02/09 06:27:20;;;;;;;4.30;1.70;;;23.30;60.90;;;;;;5070249;28;20256;-42
2022/02/09 06:29:50;;;;;;;4.43;1.92;;;23.30;60.90;;;;;;5070666;28;20234;-44
2022/02/09 06:32:22;;;;;;;3.00;1.45;;;23.30;61.10;;;;;;5070162;28;20187;-42
2022/02/09 06:34:53;;;;;;;3.47;1.60;;;23.30;61.10;;;;;;5068423;28;20203;-44
2022/02/09 06:37:26;;;;;;;3.75;1.80;;;23.20;60.80;;;;;;5070566;28;20252;-42
2022/02/09 06:39:59;;;;;;;4.03;1.85;;;23.20;60.70;;;;;;5070915;28;20285;-42
2022/02/09 06:42:33;;;;;;;4.25;1.63;;;23.20;60.70;;;;;;5068237;28;20210;-52
2022/02/09 06:45:09;;;;;;;2.70;1.45;;;23.20;60.70;;;;;;5062760;28;20243;-51
2022/02/09 06:47:40;;;;;;;1.58;1.35;;;23.20;60.60;;;;;;5068338;28;20309;-57
2022/02/09 06:50:17;;;;;;;4.72;1.90;;;23.20;60.60;;;;;;5068639;28;20205;-48
2022/02/09 06:52:59;;;;;;;3.80;2.15;;;23.20;60.60;;;;;;5067008;28;20268;-46
2022/02/09 06:55:29;;;;;;;2.30;1.58;;;23.20;60.50;;;;;;5066528;28;20195;-50
2022/02/09 06:58:15;;;;;;;2.25;1.33;;;23.20;60.50;;;;;;5068104;28;20249;-48
2022/02/09 07:00:46;;;;;;;2.08;1.35;;;23.20;60.50;;;;;;5067760;28;20281;-49
2022/02/09 07:03:16;;;;;;;2.95;1.60;;;23.20;60.40;;;;;;5068490;28;20276;-55
2022/02/09 07:05:47;;;;;;;4.90;1.75;;;23.20;60.40;;;;;;5068307;28;20199;-53
2022/02/09 07:08:18;;;;;;;2.95;1.40;;;23.20;60.40;;;;;;5067367;28;20222;-58
2022/02/09 07:10:49;;;;;;;2.67;1.27;;;23.20;60.40;;;;;;5067774;28;20187;-61
2022/02/09 07:13:21;;;;;;;2.30;1.25;;;23.20;60.40;;;;;;5068684;28;20313;-54
2022/02/09 07:15:54;;;;;;;2.22;1.17;;;23.20;61.20;;;;;;5068473;28;20263;-48
2022/02/09 07:18:25;;;;;;;1.90;1.05;;;23.20;60.40;;;;;;5068240;28;20205;-53
2022/02/09 07:21:00;;;;;;;2.47;1.30;;;23.20;60.40;;;;;;5068560;28;20707;-48
2022/02/09 07:23:35;;;;;;;2.00;1.20;;;23.20;60.40;;;;;;5067313;28;20694;-49
2022/02/09 07:26:10;;;;;;;3.03;1.55;;;23.10;60.30;;;;;;5068187;28;20209;-56
2022/02/09 07:28:43;;;;;;;2.00;1.20;;;23.10;60.20;;;;;;5067586;28;20210;-52
2022/02/09 07:31:15;;;;;;;2.47;1.27;;;23.10;60.30;;;;;;5068072;28;20187;-56
2022/02/09 07:33:47;;;;;;;1.90;1.35;;;23.20;60.20;;;;;;5067183;28;20633;-58
2022/02/09 07:36:18;;;;;;;2.65;1.02;;;23.20;60.10;;;;;;5067004;28;20693;-60
2022/02/09 07:38:49;;;;;;;1.20;1.10;;;23.20;60.00;;;;;;5067728;28;20280;-44
2022/02/09 07:41:19;;;;;;;2.28;1.23;;;23.10;60.00;;;;;;5068072;28;20199;-55
2022/02/09 07:44:04;;;;;;;2.17;1.02;;;23.10;60.00;;;;;;5068193;28;20270;-54
2022/02/09 07:46:52;;;;;;;2.55;1.50;;;23.10;59.90;;;;;;5067988;28;20202;-56
2022/02/09 07:49:26;;;;;;;2.15;1.20;;;23.10;59.90;;;;;;5067491;28;20222;-60
2022/02/09 07:52:05;;;;;;;2.80;1.27;;;23.10;59.90;;;;;;5067491;28;20187;-58
2022/02/09 07:54:36;;;;;;;2.00;1.02;;;23.10;59.90;;;;;;5067456;28;20283;-58
2022/02/09 07:57:07;;;;;;;2.70;1.17;;;23.10;59.90;;;;;;5067146;28;20187;-56
2022/02/09 07:59:39;;;;;;;2.40;1.15;;;23.10;59.90;;;;;;5067253;28;20278;-57
2022/02/09 08:02:10;;;;;;;2.53;1.30;;;23.10;59.90;;;;;;5068321;28;20195;-49
2022/02/09 08:04:41;;;;;;;1.77;1.17;;;23.10;59.90;;;;;;5067322;28;20674;-55
2022/02/09 08:07:11;;;;;;;1.67;1.02;;;23.10;59.90;;;;;;5068199;28;20346;-60
2022/02/09 08:09:44;;;;;;;2.53;1.10;;;23.10;59.90;;;;;;5068163;28;20218;-56
2022/02/09 08:12:33;;;;;;;2.00;1.25;;;23.00;59.90;;;;;;5066934;28;20203;-55
2022/02/09 08:24:05;;;;;;;2.55;1.33;;;23.00;59.80;;;;;;5063930;28;20317;-47
2022/02/09 08:26:49;;;;;;;1.75;1.10;;;23.00;59.70;;;;;;5071290;28;20203;-56
2022/02/09 08:29:25;;;;;;;1.63;0.95;;;23.00;59.70;;;;;;5070968;28;20257;-48
2022/02/09 08:34:47;;;;;;;1.83;1.17;;;23.00;60.00;;;;;;5070617;28;20340;-51
2022/02/09 08:37:17;;;;;;;1.45;1.15;;;23.00;60.00;;;;;;5070711;28;20268;-57
2022/02/09 08:39:49;;;;;;;1.35;0.88;;;23.00;60.00;;;;;;5070538;28;20253;-60
2022/02/09 08:42:20;;;;;;;1.83;0.80;;;23.00;59.90;;;;;;5071293;28;20216;-56
2022/02/09 08:44:50;;;;;;;1.45;0.80;;;23.00;59.90;;;;;;5071350;28;20191;-55
2022/02/09 08:47:23;;;;;;;1.55;0.95;;;23.00;59.90;;;;;;5071357;28;20248;-48
2022/02/09 08:49:54;;;;;;;1.30;0.90;;;23.00;59.90;;;;;;5070891;28;20218;-43
2022/02/09 08:52:24;;;;;;;2.17;0.90;;;23.00;59.80;;;;;;5069788;28;20195;-42
2022/02/09 08:54:55;;;;;;;2.13;1.08;;;23.00;59.80;;;;;;5070178;28;20214;-59
2022/02/09 08:57:27;;;;;;;1.23;1.00;;;23.00;59.80;;;;;;5071173;28;20195;-58
2022/02/09 08:59:59;;;;;;;1.05;0.85;;;23.00;59.90;;;;;;5070442;28;20191;-58
2022/02/09 09:02:34;;;;;;;1.85;0.93;;;23.00;59.80;;;;;;5071356;28;20211;-60
2022/02/09 09:05:14;;;;;;;1.20;1.10;;;23.00;59.80;;;;;;5070274;28;20194;-58
2022/02/09 09:07:49;;;;;;;1.40;0.90;;;23.00;59.80;;;;;;5070510;28;20771;-55
2022/02/09 09:10:27;;;;;;;1.25;0.88;;;23.00;59.80;;;;;;5070436;28;20222;-45
2022/02/09 10:03:06;;;;;;;1.40;0.90;;;22.80;59.50;;;;;;5067698;28;20226;-51
2022/02/09 10:34:12;;;;;;;1.17;0.88;;;22.80;59.40;;;;;;5067752;28;20210;-45
2022/02/09 10:36:49;;;;;;;0.82;0.77;;;22.80;59.40;;;;;;5068448;28;20217;-46
2022/02/09 10:39:23;;;;;;;0.60;0.60;;;22.80;59.50;;;;;;5068922;28;20317;-47
2022/02/09 10:42:04;;;;;;;0.85;0.63;;;22.80;59.50;;;;;;5068352;28;20202;-44
2022/02/09 10:44:47;;;;;;;1.10;1.00;;;22.80;59.40;;;;;;5068393;28;20293;-43
2022/02/09 10:47:27;;;;;;;0.93;0.73;;;22.80;59.40;;;;;;5068035;28;20195;-48
2022/02/09 10:50:23;;;;;;;1.33;0.70;;;22.80;59.40;;;;;;5068350;28;20220;-46
2022/02/09 10:52:54;;;;;;;0.73;0.68;;;22.80;59.40;;;;;;5068069;28;20211;-43
2022/02/09 10:55:34;;;;;;;1.00;0.70;;;22.80;59.30;;;;;;5068169;28;20195;-45
2022/02/09 10:58:07;;;;;;;1.25;0.80;;;22.80;59.30;;;;;;5068157;28;20292;-44
2022/02/09 11:00:43;;;;;;;1.00;0.70;;;22.80;59.40;;;;;;5056225;28;20252;-52
2022/02/09 11:03:16;;;;;;;0.60;0.60;;;22.70;59.30;;;;;;5065918;28;20210;-49
2022/02/09 11:05:48;;;;;;;1.08;0.80;;;22.80;59.30;;;;;;5067603;28;20598;-58
2022/02/09 11:08:19;;;;;;;0.90;0.77;;;22.80;59.30;;;;;;5051414;28;20200;-42
2022/02/09 11:10:50;;;;;;;0.85;0.82;;;22.80;59.30;;;;;;5059989;28;20284;-43
2022/02/09 11:13:23;;;;;;;0.90;0.70;;;22.70;59.30;;;;;;5069043;28;20226;-43
2022/02/09 11:15:54;;;;;;;1.20;0.90;;;22.70;59.30;;;;;;5069190;28;20236;-42
2022/02/09 11:18:26;;;;;;;0.82;0.73;;;22.70;59.30;;;;;;5069118;28;20195;-43
2022/02/09 11:21:14;;;;;;;0.77;0.60;;;22.70;59.30;;;;;;5067484;28;20187;-42
2022/02/09 11:23:48;;;;;;;0.85;0.70;;;22.70;59.30;;;;;;5068155;28;20230;-43
2022/02/09 11:26:36;;;;;;;1.38;0.75;;;22.70;59.30;;;;;;5067138;28;20187;-43
2022/02/09 11:32:30;;;;;;;1.20;0.70;;;22.70;59.20;;;;;;5060553;28;20195;-43
2022/02/09 11:38:24;;;;;;;0.80;0.70;;;22.70;59.20;;;;;;5061402;28;20217;-42
2022/02/09 11:41:09;;;;;;;0.88;0.70;;;22.70;59.20;;;;;;5067474;28;20277;-42
2022/02/09 11:43:50;;;;;;;0.90;0.70;;;22.60;59.10;;;;;;5067510;28;20218;-42
2022/02/09 11:46:57;;;;;;;1.02;0.70;;;22.70;59.10;;;;;;5066860;28;20848;-44
2022/02/09 12:01:07;;;;;;;0.73;0.60;;;22.60;59.70;;;;;;5053128;28;20203;-42
2022/02/09 12:10:12;;;;;;;0.73;0.70;;;22.60;59.20;;;;;;5072188;28;20221;-42
2022/02/09 12:12:58;;;;;;;0.90;0.63;;;22.60;59.20;;;;;;5060849;28;20233;-42
2022/02/09 12:16:20;;;;;;;0.52;0.52;;;22.60;59.20;;;;;;5068439;28;20198;-42
2022/02/09 12:19:07;;;;;;;0.60;0.50;;;22.60;59.20;;;;;;5072454;28;20191;-42
2022/02/09 12:21:44;;;;;;;0.80;0.70;;;22.60;59.20;;;;;;5072476;28;20206;-42
2022/02/09 12:24:28;;;;;;;0.88;0.70;;;22.60;59.20;;;;;;5068231;28;20215;-42
2022/02/09 12:27:04;;;;;;;0.60;0.60;;;22.60;59.20;;;;;;5067892;28;20919;-47
2022/02/09 12:29:36;;;;;;;1.30;0.63;;;22.60;59.10;;;;;;5053420;28;20674;-45
2022/02/09 12:32:25;;;;;;;0.55;0.55;;;22.60;59.10;;;;;;5052710;28;20199;-48
2022/02/09 12:35:05;;;;;;;0.68;0.68;;;22.60;59.20;;;;;;5052819;28;20195;-42
2022/02/09 12:37:38;;;;;;;1.00;0.60;;;22.60;59.20;;;;;;5060640;28;20653;-49
2022/02/09 12:40:12;;;;;;;1.23;0.77;;;22.50;59.10;;;;;;5072720;28;20194;-45
2022/02/09 12:42:43;;;;;;;0.70;0.70;;;22.60;59.10;;;;;;5072823;28;20205;-42
2022/02/09 12:45:16;;;;;;;1.10;0.73;;;22.50;59.10;;;;;;5072735;28;20510;-42
2022/02/09 12:47:48;;;;;;;0.98;0.70;;;22.60;59.20;;;;;;5072549;28;20261;-51
2022/02/09 12:50:24;;;;;;;0.95;0.63;;;22.50;59.40;;;;;;5069364;28;20218;-47
2022/02/09 12:52:56;;;;;;;0.90;0.52;;;22.50;59.20;;;;;;5052638;28;20753;-47
2022/02/09 12:55:27;;;;;;;0.50;0.50;;;22.50;59.20;;;;;;5051956;28;20196;-44
2022/02/09 12:58:01;;;;;;;0.68;0.50;;;22.50;59.10;;;;;;5053747;28;20191;-42
2022/02/09 13:00:33;;;;;;;0.50;0.50;;;22.50;59.10;;;;;;5069818;28;20558;-46
2022/02/09 13:03:05;;;;;;;0.98;0.55;;;22.50;59.20;;;;;;5071947;28;20298;-47
2022/02/09 13:05:45;;;;;;;0.77;0.50;;;22.50;59.10;;;;;;5071959;28;20759;-42
2022/02/09 13:08:21;;;;;;;0.80;0.70;;;22.50;59.10;;;;;;5070780;28;20194;-44
2022/02/09 13:10:56;;;;;;;0.50;0.50;;;22.50;59.10;;;;;;5071542;28;20250;-48
2022/02/09 13:13:30;;;;;;;0.43;0.40;;;22.50;59.00;;;;;;5072064;28;20268;-46
2022/02/09 13:16:11;;;;;;;0.93;0.50;;;22.50;59.00;;;;;;5071902;28;20199;-47
2022/02/09 13:19:00;;;;;;;0.55;0.55;;;22.50;59.00;;;;;;5071924;28;20223;-45
2022/02/09 13:53:26;;;;;;;1.15;0.57;;;22.40;59.00;;;;;;5070902;28;20560;-43
2022/02/09 14:07:41;;;;;;;0.50;0.50;;;22.40;58.90;;;;;;5070103;28;20187;-43
2022/02/09 14:13:14;;;;;;;0.50;0.40;;;22.40;59.00;;;;;;5049962;28;20223;-42
2022/02/09 14:18:49;;;;;;;0.52;0.50;;;22.40;58.90;;;;;;5050328;28;20670;-46
2022/02/09 14:53:00;;;;;;;0.50;0.50;;;22.30;58.90;;;;;;5076794;28;20598;-40
2022/02/09 14:55:44;;;;;;;0.55;0.47;;;22.30;58.80;;;;;;5086998;28;20261;-43
2022/02/09 14:58:22;;;;;;;0.75;0.60;;;22.30;58.90;;;;;;5091183;28;20197;-40
2022/02/09 15:01:00;;;;;;;0.60;0.50;;;22.30;58.90;;;;;;5107323;28;20193;-40
2022/02/09 15:03:59;;;;;;;0.38;0.38;;;22.30;58.90;;;;;;5107191;28;20243;-40
2022/02/09 15:09:40;;;;;;;0.85;0.50;;;22.30;58.80;;;;;;5107541;27;20680;-43
2022/02/09 15:12:20;;;;;;;0.50;0.40;;;22.30;58.90;;;;;;5107774;28;20645;-43
2022/02/09 15:15:05;;;;;;;0.40;0.40;;;22.30;58.80;;;;;;5087522;28;20284;-42
2022/02/09 15:17:48;;;;;;;0.68;0.60;;;22.30;58.80;;;;;;5087559;28;20659;-45
2022/02/09 15:23:07;;;;;;;0.40;0.40;;;22.30;58.90;;;;;;5085669;28;20225;-42
2022/02/09 15:25:39;;;;;;;0.47;0.40;;;22.30;58.80;;;;;;5066595;28;20237;-42
2022/02/09 15:28:11;;;;;;;0.52;0.40;;;22.30;58.90;;;;;;5066719;28;20280;-47
2022/02/09 15:30:49;;;;;;;0.50;0.50;;;22.30;58.90;;;;;;5066537;28;20198;-42
2022/02/09 15:33:24;;;;;;;0.35;0.35;;;22.30;58.90;;;;;;5066431;28;20298;-42
2022/02/09 15:35:58;;;;;;;0.77;0.70;;;22.30;58.80;;;;;;5066555;28;20195;-42
2022/02/09 15:38:38;;;;;;;0.50;0.50;;;22.30;58.80;;;;;;5072427;28;20194;-46
2022/02/09 15:41:17;;;;;;;0.40;0.40;;;22.30;58.80;;;;;;5087308;28;20281;-50
2022/02/09 15:56:08;;;;;;;0.70;0.50;;;22.30;58.80;;;;;;5086701;28;20222;-46
2022/02/09 16:06:44;;;;;;;0.52;0.40;;;22.20;58.80;;;;;;5066324;28;20752;-41
2022/02/09 16:09:17;;;;;;;0.60;0.60;;;22.20;58.90;;;;;;5076677;28;20229;-40
2022/02/09 16:23:01;;;;;;;0.50;0.50;;;22.20;58.80;;;;;;5072590;28;20271;-41
2022/02/09 16:25:50;;;;;;;0.47;0.40;;;22.20;58.80;;;;;;5032721;28;20647;-40
2022/02/09 16:34:37;;;;;;;0.30;0.25;;;22.20;58.80;;;;;;4995916;28;20216;-40
2022/02/09 16:37:34;;;;;;;0.40;0.40;;;22.20;58.80;;;;;;5031677;28;20313;-40
2022/02/09 16:45:46;;;;;;;0.40;0.40;;;22.20;58.70;;;;;;5054023;28;20191;-40
2022/02/09 16:48:18;;;;;;;0.47;0.47;;;22.20;58.80;;;;;;5071783;28;20229;-40
2022/02/09 16:50:51;;;;;;;0.40;0.40;;;22.20;58.80;;;;;;5071756;28;20194;-40
2022/02/09 16:53:40;;;;;;;0.47;0.40;;;22.20;58.80;;;;;;5069444;28;20214;-42
2022/02/09 16:56:28;;;;;;;0.60;0.60;;;22.10;58.80;;;;;;5071396;28;20282;-41
2022/02/09 17:21:13;;;;;;;0.38;0.35;;;22.10;58.80;;;;;;5051543;28;20769;-41
2022/02/09 17:23:45;;;;;;;0.40;0.40;;;22.10;58.80;;;;;;5053576;28;20276;-42
2022/02/09 17:26:16;;;;;;;0.40;0.40;;;22.10;58.80;;;;;;5071643;28;20199;-41
2022/02/09 17:28:53;;;;;;;0.30;0.30;;;22.10;58.70;;;;;;5071528;28;20254;-41
2022/02/09 17:31:30;;;;;;;0.30;0.30;;;22.10;58.80;;;;;;5070579;28;20194;-42
2022/02/09 17:34:17;;;;;;;0.30;0.30;;;22.10;58.70;;;;;;5071296;28;20961;-45
2022/02/09 17:53:37;;;;;;;0.40;0.40;;;22.10;58.80;;;;;;5036671;28;20215;-40
2022/02/09 17:56:14;;;;;;;0.60;0.43;;;22.10;58.70;;;;;;5070132;28;20256;-40
2022/02/09 17:58:48;;;;;;;0.40;0.40;;;22.10;58.80;;;;;;5070609;28;20247;-40
2022/02/09 18:01:20;;;;;;;0.70;0.40;;;22.10;58.80;;;;;;5070441;28;20281;-40
2022/02/09 18:03:54;;;;;;;0.40;0.40;;;22.10;58.90;;;;;;5070186;28;20226;-40
2022/02/09 18:06:29;;;;;;;0.30;0.30;;;22.00;58.80;;;;;;5070661;28;20680;-43
2022/02/09 18:09:07;;;;;;;0.93;0.60;;;22.10;58.80;;;;;;5069729;28;20719;-41
2022/02/09 18:11:50;;;;;;;0.45;0.40;;;22.10;58.80;;;;;;5070612;28;20245;-43
2022/02/09 18:14:34;;;;;;;0.40;0.40;;;22.10;58.80;;;;;;5070041;28;20232;-42
2022/02/09 18:25:56;;;;;;;0.52;0.50;;;22.00;58.70;;;;;;5063247;28;20286;-42
2022/02/09 18:31:22;;;;;;;0.40;0.40;;;22.00;58.80;;;;;;5066648;28;20195;-43
2022/02/09 18:34:06;;;;;;;0.40;0.40;;;22.00;58.80;;;;;;5070345;28;20238;-41
2022/02/09 18:45:13;;;;;;;0.55;0.30;;;22.00;58.80;;;;;;5069799;28;20198;-42
2022/02/09 19:02:32;;;;;;;0.40;0.40;;;22.00;58.80;;;;;;5048146;28;20214;-51
2022/02/09 19:05:17;;;;;;;0.40;0.40;;;22.00;58.80;;;;;;5047901;28;20188;-56
2022/02/09 19:16:49;;;;;;;0.20;0.20;;;22.00;58.90;;;;;;5101288;27;20200;-48
2022/02/09 19:30:45;;;;;;;0.45;0.40;;;22.00;58.90;;;;;;5125547;28;20227;-58
2022/02/09 19:47:44;;;;;;;0.40;0.40;;;22.00;58.90;;;;;;5126054;28;20688;-57
2022/02/09 19:50:29;;;;;;;0.85;0.30;;;22.00;58.90;;;;;;5124124;27;20758;-55
2022/02/09 19:53:12;;;;;;;0.50;0.50;;;22.00;58.90;;;;;;5125173;27;20208;-49
2022/02/09 19:55:51;;;;;;;0.50;0.50;;;22.00;58.90;;;;;;5125830;28;20214;-57
2022/02/09 19:58:29;;;;;;;0.38;0.38;;;22.00;58.90;;;;;;5125137;27;20188;-52
2022/02/09 20:01:02;;;;;;;0.40;0.40;;;22.00;59.50;;;;;;5125710;27;20193;-49
2022/02/09 20:03:33;;;;;;;0.80;0.50;;;22.00;59.10;;;;;;5126019;27;20217;-55
2022/02/09 20:06:06;;;;;;;0.57;0.40;;;22.10;60.20;;;;;;5125343;27;20208;-57
2022/02/09 20:08:38;;;;;;;0.40;0.40;;;22.10;60.40;;;;;;5125604;27;20196;-50
2022/02/09 20:11:11;;;;;;;0.47;0.45;;;22.10;60.50;;;;;;5123727;27;20188;-57
2022/02/09 20:13:42;;;;;;;0.85;0.40;;;22.10;60.40;;;;;;5124952;27;20244;-57
2022/02/09 20:16:16;;;;;;;0.40;0.40;;;22.10;60.30;;;;;;5124056;28;20562;-47
2022/02/09 20:18:47;;;;;;;0.40;0.40;;;22.10;60.20;;;;;;5123189;28;20189;-52
2022/02/09 20:21:20;;;;;;;0.40;0.40;;;22.10;60.10;;;;;;5112829;27;20775;-56
2022/02/09 20:23:52;;;;;;;0.52;0.40;;;22.10;60.10;;;;;;5110856;28;20618;-46
2022/02/09 20:26:23;;;;;;;0.85;0.47;;;22.10;60.00;;;;;;5111664;28;20749;-54
2022/02/09 20:28:58;;;;;;;1.20;0.60;;;22.10;60.00;;;;;;5110349;28;20194;-55
2022/02/09 20:31:35;;;;;;;0.30;0.30;;;22.10;60.00;;;;;;5111766;28;20197;-44
2022/02/09 20:34:15;;;;;;;0.40;0.40;;;22.10;60.00;;;;;;5111079;28;20240;-56
2022/02/09 20:36:46;;;;;;;0.35;0.35;;;22.10;59.90;;;;;;5112303;28;20189;-50
2022/02/09 20:39:22;;;;;;;1.85;0.70;;;22.10;59.70;;;;;;5111061;27;20685;-50
2022/02/09 20:41:53;;;;;;;0.80;0.50;;;22.20;59.80;;;;;;5111678;27;20201;-58
2022/02/09 20:44:31;;;;;;;0.90;0.60;;;22.10;59.80;;;;;;5110874;28;20296;-46
2022/02/09 20:47:04;;;;;;;0.80;0.50;;;22.20;59.80;;;;;;5111215;28;20192;-58
2022/02/09 20:49:35;;;;;;;0.38;0.30;;;22.10;59.90;;;;;;5110820;28;20214;-58
2022/02/09 20:52:06;;;;;;;1.83;0.40;;;22.20;59.90;;;;;;5111715;28;20225;-51
2022/02/09 20:54:37;;;;;;;0.47;0.47;;;22.20;59.80;;;;;;5110844;28;20212;-55
2022/02/09 20:57:08;;;;;;;0.85;0.43;;;22.10;59.80;;;;;;5111083;27;20193;-53
2022/02/09 20:59:44;;;;;;;0.50;0.50;;;22.10;59.80;;;;;;5109281;28;20201;-59
2022/02/09 21:02:33;;;;;;;0.77;0.40;;;22.20;59.90;;;;;;5111394;28;20212;-54
2022/02/09 21:05:24;;;;;;;0.52;0.40;;;22.20;59.80;;;;;;5111218;28;20196;-55
2022/02/09 21:08:06;;;;;;;0.80;0.63;;;22.20;59.80;;;;;;5107623;27;20710;-58
2022/02/09 21:10:45;;;;;;;0.50;0.50;;;22.20;59.70;;;;;;5110992;28;20307;-46
2022/02/09 21:13:25;;;;;;;0.75;0.50;;;22.20;59.70;;;;;;5110516;27;20231;-47
2022/02/09 21:16:11;;;;;;;0.50;0.40;;;22.20;59.70;;;;;;5108668;28;20246;-51
2022/02/09 21:22:26;;;;;;;0.65;0.50;;;22.20;59.70;;;;;;5067991;28;20640;-48
2022/02/09 21:28:26;;;;;;;0.70;0.50;;;22.20;59.60;;;;;;5110798;28;20251;-51
2022/02/09 21:42:41;;;;;;;0.57;0.47;;;22.20;59.50;;;;;;5091609;28;20242;-57
2022/02/09 21:53:35;;;;;;;0.82;0.50;;;22.30;59.50;;;;;;5109486;28;20258;-48
2022/02/09 21:56:18;;;;;;;1.58;0.55;;;22.30;59.50;;;;;;5107457;28;20198;-44
2022/02/09 21:58:59;;;;;;;0.85;0.60;;;22.30;59.60;;;;;;5108368;28;20190;-46
2022/02/09 22:01:52;;;;;;;0.57;0.40;;;22.30;60.30;;;;;;5106850;28;20700;-55
2022/02/09 22:16:30;;;;;;;1.40;0.50;;;22.30;60.10;;;;;;5086587;28;20209;-53
2022/02/09 22:19:30;;;;;;;0.75;0.40;;;22.30;60.50;;;;;;5085467;28;20194;-54
2022/02/09 22:22:17;;;;;;;1.73;0.70;;;22.40;60.50;;;;;;5086233;28;20210;-59
2022/02/09 22:27:36;;;;;;;0.70;0.40;;;22.40;60.40;;;;;;5084929;28;20260;-56
2022/02/09 22:50:11;;;;;;;2.08;0.60;;;22.40;60.10;;;;;;5085792;28;20301;-46
2022/02/09 22:55:34;;;;;;;0.40;0.40;;;22.50;60.10;;;;;;5085038;28;20232;-56
2022/02/09 22:58:07;;;;;;;0.50;0.50;;;22.50;60.00;;;;;;5085727;28;20190;-54
2022/02/09 23:00:50;;;;;;;0.60;0.40;;;22.50;60.00;;;;;;5084777;28;20191;-55
2022/02/09 23:03:26;;;;;;;0.77;0.40;;;22.50;60.00;;;;;;5085676;28;20224;-47
2022/02/09 23:06:15;;;;;;;0.50;0.50;;;22.50;60.00;;;;;;5085588;28;20198;-48
2022/02/09 23:11:53;;;;;;;0.80;0.68;;;22.50;59.90;;;;;;5078503;28;20225;-43
